Lawrence, Illinois
Current Conditions -  °F | °C
As of 10:15 AM on Saturday 25 Oct 2014 (Local Time) from KLWV Reporting Station
Scattered Clouds Scattered Clouds  
Wind Chill: 65°   Ceiling: Unl
Heat Index: 65°   Visibility: 7mi
Dew Point: 58°   Wind: 6mph
Humidity: 78%   Direction: 310°NW
Pressure: 30.02"   Gusts: NA
Location:  38.7501°N, 87.6141°W
Report Text: KLWV 251515Z AUTO 31005KT 7SM SCT014 18/14 A3002 RMK AO2 T01830144
Loading
Personal Weather Stations






























Interactive Weather Map
Tropical Storm Tracking
New forecast layout! Learn more

10-Day Weather Forecast

Advertisements
Track Severe Weather on mobile